Terminal Aerodrome Forecast
Issued by NWS Denver/Boulder, CO

Home | Current Version | Previous Version | Text Only | Print | Product List | Glossary On
Versions: 1 2 3 4 5 6 7 8 9 10 11 12 13 14 15 16 17 18 19 20 21 22 23 24 25 26 27 28 29 30 31 32 33 34 35 36
000
FTUS45 KBOU 230059 AAA
TAFDEN
TAF AMD
KDEN 230059Z 2301/2406 13011KT P6SM SCT120 BKN200
     FM230300 15011KT P6SM SCT100 BKN150
     FM230600 20012KT P6SM SCT100 OVC120
     FM231400 24012KT P6SM BKN080 OVC120
     FM231900 24012G22KT P6SM VCSH BKN080 OVC120
     FM240100 24012KT P6SM SCT080 BKN120=

USA.gov is the U.S. government's official web portal to all federal, state and local government web resources and services.